Whitehorse, South Dakota
Current Conditions -  °F | °C
As of 9:52 AM on Friday 31 Oct 2014 (Local Time) from KMBG Reporting Station
Clear Clear  
Wind Chill: 22°   Ceiling: Unl
Heat Index: 32°   Visibility: 10mi
Dew Point: 22°   Wind: 15mph
Humidity: 66%   Direction: 160°SSE
Pressure: 30.49"   Gusts: NA
Location:  45.27°N, 100.89°W
Report Text: KMBG 311552Z AUTO 16013KT 10SM CLR 00/M06 A3049 RMK AO2 SLP347 T00001056
Loading
Personal Weather Stations






























Interactive Weather Map
Tropical Storm Tracking
New forecast layout! Learn more

10-Day Weather Forecast

Advertisements
Track Severe Weather on mobile